createdAt,value
2022-09-11T00:01:18.712Z,0.70
2022-09-11T00:03:51.178Z,0.88
2022-09-11T00:06:29.254Z,0.85
2022-09-11T00:09:03.459Z,0.70
2022-09-11T00:11:42.992Z,0.50
2022-09-11T00:14:14.369Z,0.80
2022-09-11T00:16:46.677Z,0.65
2022-09-11T00:19:23.260Z,0.60
2022-09-11T00:21:52.142Z,0.62
2022-09-11T00:24:22.513Z,0.95
2022-09-11T00:26:51.776Z,0.60
2022-09-11T00:29:22.373Z,1.02
2022-09-11T00:31:51.186Z,0.62
2022-09-11T00:34:28.200Z,1.05
2022-09-11T00:36:58.570Z,0.70
2022-09-11T00:39:28.610Z,0.70
2022-09-11T00:41:57.245Z,0.80
2022-09-11T00:44:28.958Z,0.60
2022-09-11T00:47:03.914Z,0.57
2022-09-11T00:49:45.965Z,0.60
2022-09-11T00:52:26.946Z,0.57
2022-09-11T00:55:10.120Z,0.88
2022-09-11T00:58:13.882Z,0.70
2022-09-11T01:00:46.692Z,0.73
2022-09-11T01:03:20.952Z,0.90
2022-09-11T01:05:52.974Z,0.70
2022-09-11T01:08:28.401Z,0.70
2022-09-11T01:11:00.469Z,0.68
2022-09-11T01:13:41.404Z,0.60
2022-09-11T01:16:56.098Z,0.90
2022-09-11T01:20:06.144Z,0.80
2022-09-11T01:23:29.115Z,0.60
2022-09-11T01:26:19.369Z,0.80
2022-09-11T01:29:32.268Z,0.60
2022-09-11T01:32:22.663Z,0.60
2022-09-11T01:35:10.529Z,0.85
2022-09-11T01:37:51.745Z,0.40
2022-09-11T01:40:29.235Z,1.05
2022-09-11T01:43:17.076Z,0.50
2022-09-11T01:45:49.528Z,0.98
2022-09-11T01:48:23.005Z,0.70
2022-09-11T01:50:55.210Z,0.60
2022-09-11T01:53:35.337Z,0.50
2022-09-11T01:56:17.928Z,0.60
2022-09-11T01:58:59.031Z,0.80
2022-09-11T02:01:36.418Z,0.95
2022-09-11T02:04:12.268Z,0.80
2022-09-11T02:06:49.658Z,0.60
2022-09-11T02:09:29.374Z,0.60
2022-09-11T02:12:02.807Z,0.57
2022-09-11T02:14:41.004Z,0.43
2022-09-11T02:17:38.303Z,0.60
2022-09-11T02:20:14.604Z,0.60
2022-09-11T02:22:45.613Z,0.62
2022-09-11T02:25:17.610Z,0.50
2022-09-11T02:27:50.673Z,0.65
2022-09-11T02:30:22.214Z,0.70
2022-09-11T02:32:56.255Z,0.62
2022-09-11T02:35:30.660Z,0.60
2022-09-11T02:38:33.754Z,0.70
2022-09-11T02:41:14.295Z,0.80
2022-09-11T02:44:03.721Z,0.50
2022-09-11T02:46:51.003Z,0.50
2022-09-11T02:49:44.851Z,0.47
2022-09-11T02:52:58.387Z,0.70
2022-09-11T02:55:46.051Z,0.60
2022-09-11T02:58:29.545Z,0.60
2022-09-11T03:01:01.365Z,0.70
2022-09-11T03:03:45.798Z,0.50
2022-09-11T03:06:25.560Z,0.50
2022-09-11T03:08:55.814Z,0.50
2022-09-11T03:11:33.615Z,0.43
2022-09-11T03:14:06.417Z,0.68
2022-09-11T03:16:38.346Z,0.50
2022-09-11T03:19:10.914Z,0.50
2022-09-11T03:21:43.580Z,0.70
2022-09-11T03:24:14.582Z,0.60
2022-09-11T03:26:54.436Z,0.70
2022-09-11T03:29:22.395Z,0.70
2022-09-11T03:31:57.630Z,0.65
2022-09-11T03:34:29.954Z,0.70
2022-09-11T03:37:10.569Z,0.65
2022-09-11T03:39:44.460Z,0.60
2022-09-11T03:42:21.623Z,0.98
2022-09-11T03:44:54.506Z,0.70
2022-09-11T03:47:25.615Z,0.65
2022-09-11T03:50:05.342Z,0.70
2022-09-11T03:52:37.455Z,0.75
2022-09-11T03:55:08.527Z,0.77
2022-09-11T03:57:39.468Z,0.77
2022-09-11T04:00:15.085Z,0.62
2022-09-11T04:02:50.488Z,0.80
2022-09-11T04:05:26.352Z,0.75
2022-09-11T04:07:58.992Z,1.08
2022-09-11T04:10:40.092Z,0.70
2022-09-11T04:13:14.334Z,0.60
2022-09-11T04:15:43.412Z,0.60
2022-09-11T04:18:19.414Z,0.73
2022-09-11T04:20:51.735Z,0.73
2022-09-11T04:23:27.955Z,0.73
2022-09-11T04:26:19.721Z,0.75
2022-09-11T04:29:01.264Z,0.93
2022-09-11T04:31:32.137Z,0.73
2022-09-11T04:34:06.412Z,0.80
2022-09-11T04:36:39.736Z,0.50
2022-09-11T04:39:25.887Z,0.70
2022-09-11T04:42:01.551Z,0.70
2022-09-11T04:44:34.650Z,0.80
2022-09-11T04:47:11.335Z,0.90
2022-09-11T04:49:43.001Z,0.75
2022-09-11T04:52:17.059Z,0.73
2022-09-11T04:54:49.865Z,0.70
2022-09-11T04:57:29.867Z,0.60
2022-09-11T05:00:11.253Z,0.90
2022-09-11T05:02:51.041Z,0.80
2022-09-11T05:05:22.021Z,0.80
2022-09-11T05:07:57.222Z,0.88
2022-09-11T05:10:32.650Z,0.80
2022-09-11T05:13:08.746Z,0.98
2022-09-11T05:16:11.156Z,0.90
2022-09-11T05:18:44.844Z,0.90
2022-09-11T05:21:24.864Z,1.00
2022-09-11T05:24:34.397Z,1.10
2022-09-11T05:26:54.664Z,1.00
2022-09-11T05:29:33.996Z,0.80
2022-09-11T05:32:10.435Z,0.90
2022-09-11T05:34:59.554Z,0.98
2022-09-11T05:37:32.960Z,0.98
2022-09-11T05:40:12.795Z,0.80
2022-09-11T05:42:44.171Z,1.20
2022-09-11T05:45:23.331Z,0.90
2022-09-11T05:48:00.188Z,0.80
2022-09-11T05:50:38.309Z,1.00
2022-09-11T05:53:14.609Z,0.90
2022-09-11T05:55:48.046Z,0.70
2022-09-11T05:58:22.194Z,0.88
2022-09-11T06:01:04.063Z,1.27
2022-09-11T06:03:53.346Z,0.82
2022-09-11T06:06:48.363Z,0.90
2022-09-11T06:09:24.283Z,0.80
2022-09-11T06:11:59.939Z,0.60
2022-09-11T06:14:42.672Z,0.90
2022-09-11T06:19:55.286Z,0.70
2022-09-11T06:22:31.488Z,0.88
2022-09-11T06:25:02.463Z,0.77
2022-09-11T06:27:38.207Z,0.80
2022-09-11T06:30:20.217Z,0.90
2022-09-11T06:33:05.858Z,0.75
2022-09-11T06:36:06.945Z,0.90
2022-09-11T06:38:39.403Z,0.98
2022-09-11T06:41:14.505Z,0.82
2022-09-11T06:44:00.554Z,0.90
2022-09-11T06:46:33.444Z,0.93
2022-09-11T06:49:06.609Z,0.70
2022-09-11T06:51:50.517Z,0.98
2022-09-11T06:54:27.783Z,0.80
2022-09-11T06:57:10.979Z,1.10
2022-09-11T06:59:47.976Z,1.00
2022-09-11T07:02:16.733Z,1.00
2022-09-11T07:05:11.020Z,0.90
2022-09-11T07:07:54.417Z,0.65
2022-09-11T07:10:33.964Z,0.85
2022-09-11T07:13:11.797Z,0.82
2022-09-11T07:15:42.859Z,0.95
2022-09-11T07:18:15.481Z,0.77
2022-09-11T07:20:45.152Z,1.10
2022-09-11T07:23:20.432Z,0.70
2022-09-11T07:25:50.158Z,1.23
2022-09-11T07:28:29.898Z,0.70
2022-09-11T07:31:18.708Z,1.10
2022-09-11T07:33:57.209Z,0.73
2022-09-11T07:36:32.453Z,0.77
2022-09-11T07:39:09.994Z,0.82
2022-09-11T07:41:55.843Z,0.70
2022-09-11T07:44:29.025Z,0.60
2022-09-11T07:47:07.727Z,0.50
2022-09-11T07:49:47.783Z,0.60
2022-09-11T07:52:26.522Z,0.50
2022-09-11T07:54:58.061Z,0.70
2022-09-11T07:57:32.774Z,0.60
2022-09-11T08:00:13.441Z,0.50
2022-09-11T08:02:52.081Z,0.60
2022-09-11T08:05:21.522Z,0.98
2022-09-11T08:07:55.366Z,0.70
2022-09-11T08:10:44.731Z,0.57
2022-09-11T08:13:35.665Z,0.60
2022-09-11T08:16:20.864Z,0.68
2022-09-11T08:18:57.939Z,0.90
2022-09-11T08:22:04.265Z,0.73
2022-09-11T08:24:45.443Z,1.12
2022-09-11T08:27:19.159Z,0.70
2022-09-11T08:30:05.348Z,0.55
2022-09-11T08:32:48.897Z,0.70
2022-09-11T08:38:38.305Z,0.75
2022-09-11T08:41:36.163Z,0.50
2022-09-11T08:44:22.679Z,0.68
2022-09-11T08:47:11.221Z,0.65
2022-09-11T08:49:49.690Z,0.77
2022-09-11T08:52:36.919Z,0.60
2022-09-11T08:55:19.520Z,0.60
2022-09-11T08:58:12.095Z,0.60
2022-09-11T09:01:11.407Z,0.70
2022-09-11T09:04:13.196Z,0.40
2022-09-11T09:07:06.581Z,1.02
2022-09-11T09:10:24.928Z,0.50
2022-09-11T09:13:41.618Z,0.68
2022-09-11T09:16:30.094Z,0.70
2022-09-11T09:19:19.814Z,0.50
2022-09-11T09:21:58.473Z,0.40
2022-09-11T09:24:40.757Z,0.52
2022-09-11T09:27:57.428Z,0.45
2022-09-11T09:30:36.674Z,0.80
2022-09-11T09:33:17.167Z,0.55
2022-09-11T09:35:53.161Z,0.60
2022-09-11T09:38:38.929Z,0.60
2022-09-11T09:42:01.638Z,0.50
2022-09-11T09:44:48.974Z,0.80
2022-09-11T09:47:34.095Z,0.45
2022-09-11T09:50:30.771Z,0.50
2022-09-11T09:53:14.866Z,0.50
2022-09-11T09:56:45.384Z,0.52
2022-09-11T09:59:06.119Z,0.60
2022-09-11T10:01:46.235Z,0.60
2022-09-11T10:04:28.108Z,0.68
2022-09-11T10:07:15.887Z,0.60
2022-09-11T10:09:56.010Z,0.80
2022-09-11T10:12:35.515Z,0.60
2022-09-11T10:15:21.388Z,0.50
2022-09-11T10:18:40.492Z,0.73
2022-09-11T10:21:33.916Z,0.65
2022-09-11T10:24:26.683Z,0.60
2022-09-11T10:27:08.168Z,0.77
2022-09-11T10:29:57.677Z,0.80
2022-09-11T10:32:39.544Z,0.70
2022-09-11T10:35:24.717Z,0.70
2022-09-11T10:38:18.678Z,0.52
2022-09-11T10:41:14.700Z,0.50
2022-09-11T10:44:04.034Z,0.80
2022-09-11T10:46:44.454Z,0.68
2022-09-11T10:49:25.806Z,0.88
2022-09-11T10:52:15.254Z,0.77
2022-09-11T10:55:00.078Z,0.70
2022-09-11T10:57:56.384Z,0.60
2022-09-11T11:00:45.243Z,0.85
2022-09-11T11:03:24.524Z,0.80
2022-09-11T11:07:01.975Z,0.75
2022-09-11T11:10:00.453Z,0.82
2022-09-11T11:12:40.675Z,0.75
2022-09-11T11:15:31.277Z,0.82
2022-09-11T11:18:23.277Z,0.70
2022-09-11T11:21:15.639Z,0.73
2022-09-11T11:23:56.514Z,0.90
2022-09-11T11:26:37.105Z,0.70
2022-09-11T11:29:23.065Z,0.70
2022-09-11T11:32:32.259Z,0.60
2022-09-11T11:35:26.806Z,0.52
2022-09-11T11:38:27.312Z,0.50
2022-09-11T11:41:03.396Z,0.50
2022-09-11T11:43:39.251Z,0.50
2022-09-11T11:46:28.945Z,0.50
2022-09-11T11:49:09.221Z,0.57
2022-09-11T11:52:05.955Z,0.60
2022-09-11T11:55:04.400Z,0.60
2022-09-11T11:57:40.111Z,0.77
2022-09-11T12:00:29.332Z,0.55
2022-09-11T12:03:09.031Z,0.50
2022-09-11T12:06:02.248Z,0.40
2022-09-11T12:08:44.189Z,0.43
2022-09-11T12:11:17.814Z,0.37
2022-09-11T12:13:50.801Z,0.50
2022-09-11T12:16:30.630Z,0.50
2022-09-11T12:19:22.629Z,0.47
2022-09-11T12:21:53.770Z,1.42
2022-09-11T12:24:52.729Z,1.37
2022-09-11T12:27:38.265Z,1.10
2022-09-11T12:30:27.216Z,1.00
2022-09-11T12:33:03.313Z,0.80
2022-09-11T12:35:54.460Z,0.70
2022-09-11T12:38:42.343Z,0.70
2022-09-11T12:41:35.116Z,0.52
2022-09-11T12:44:06.867Z,0.80
2022-09-11T12:46:58.522Z,1.25
2022-09-11T12:49:31.800Z,1.00
2022-09-11T12:52:20.208Z,0.70
2022-09-11T12:54:55.569Z,0.50
2022-09-11T12:57:35.401Z,0.50
2022-09-11T13:00:13.795Z,0.45
2022-09-11T13:02:44.690Z,0.70
2022-09-11T13:05:28.600Z,0.50
2022-09-11T13:08:05.570Z,0.40
2022-09-11T13:10:39.596Z,0.70
2022-09-11T13:13:36.285Z,0.50
2022-09-11T13:16:19.768Z,0.60
2022-09-11T13:18:50.880Z,0.68
2022-09-11T13:21:24.427Z,0.70
2022-09-11T13:23:54.740Z,0.70
2022-09-11T13:26:32.222Z,0.80
2022-09-11T13:29:03.769Z,0.50
2022-09-11T13:31:42.491Z,0.60
2022-09-11T13:34:26.354Z,0.52
2022-09-11T13:36:58.552Z,0.50
2022-09-11T13:39:32.173Z,0.60
2022-09-11T13:42:05.653Z,0.50
2022-09-11T13:44:47.341Z,0.60
2022-09-11T13:47:30.633Z,0.68
2022-09-11T13:50:06.146Z,1.23
2022-09-11T13:52:40.281Z,0.88
2022-09-11T13:55:15.244Z,0.90
2022-09-11T13:58:27.715Z,0.70
2022-09-11T14:00:59.613Z,0.93
2022-09-11T14:03:30.723Z,0.55
2022-09-11T14:06:08.948Z,0.62
2022-09-11T14:08:47.424Z,0.60
2022-09-11T14:11:29.387Z,0.50
2022-09-11T14:14:29.380Z,0.50
2022-09-11T14:17:01.566Z,0.45
2022-09-11T14:19:38.587Z,0.73
2022-09-11T14:25:10.029Z,0.50
2022-09-11T14:27:45.148Z,0.60
2022-09-11T14:30:34.804Z,0.70
2022-09-11T14:33:23.833Z,0.60
2022-09-11T14:36:10.958Z,0.50
2022-09-11T14:38:43.932Z,0.57
2022-09-11T14:41:17.073Z,0.45
2022-09-11T14:43:53.601Z,1.05
2022-09-11T14:46:24.374Z,0.60
2022-09-11T14:48:52.564Z,0.50
2022-09-11T14:51:31.269Z,0.60
2022-09-11T14:54:04.316Z,0.50
2022-09-11T14:56:34.496Z,0.57
2022-09-11T14:59:17.225Z,0.47
2022-09-11T15:01:57.620Z,0.40
2022-09-11T15:04:29.857Z,0.50
2022-09-11T15:07:03.328Z,0.50
2022-09-11T15:09:37.185Z,0.32
2022-09-11T15:12:22.665Z,0.40
2022-09-11T15:15:05.324Z,0.45
2022-09-11T15:17:37.405Z,0.40
2022-09-11T15:20:19.206Z,0.40
2022-09-11T15:22:53.305Z,0.40
2022-09-11T15:25:29.114Z,0.43
2022-09-11T15:28:03.308Z,0.40
2022-09-11T15:30:39.080Z,0.50
2022-09-11T15:33:15.791Z,0.45
2022-09-11T15:35:53.561Z,0.60
2022-09-11T15:38:24.322Z,0.50
2022-09-11T15:40:58.228Z,0.57
2022-09-11T15:43:40.294Z,0.60
2022-09-11T15:46:15.596Z,0.40
2022-09-11T15:48:50.152Z,0.50
2022-09-11T15:51:26.917Z,0.50
2022-09-11T15:54:01.295Z,0.60
2022-09-11T15:56:30.085Z,0.75
2022-09-11T15:59:04.855Z,0.80
2022-09-11T16:01:37.597Z,0.70
2022-09-11T16:04:09.538Z,0.68
2022-09-11T16:06:42.284Z,0.50
2022-09-11T16:09:23.013Z,0.60
2022-09-11T16:11:57.127Z,0.70
2022-09-11T16:14:32.934Z,0.70
2022-09-11T16:17:07.821Z,0.70
2022-09-11T16:19:42.977Z,0.47
2022-09-11T16:22:11.672Z,0.43
2022-09-11T16:24:44.279Z,0.70
2022-09-11T16:27:14.216Z,0.57
2022-09-11T16:32:38.466Z,0.68
2022-09-11T16:35:13.471Z,0.60
2022-09-11T16:37:42.082Z,0.68
2022-09-11T16:40:12.744Z,0.75
2022-09-11T16:42:45.921Z,0.57
2022-09-11T16:45:16.180Z,0.60
2022-09-11T16:47:48.124Z,0.60
2022-09-11T16:50:17.580Z,0.62
2022-09-11T16:52:51.217Z,0.60
2022-09-11T16:55:23.191Z,0.70
2022-09-11T16:57:55.322Z,1.05
2022-09-11T17:00:26.085Z,0.95
2022-09-11T17:02:53.799Z,0.82
2022-09-11T17:05:21.524Z,0.68
2022-09-11T17:10:20.871Z,0.60
2022-09-11T17:12:52.238Z,0.60
2022-09-11T17:15:20.529Z,0.60
2022-09-11T17:17:50.529Z,0.60
2022-09-11T17:22:53.749Z,0.62
2022-09-11T17:25:26.051Z,0.60
2022-09-11T17:27:56.619Z,0.90
2022-09-11T17:30:27.967Z,1.00
2022-09-11T17:32:57.416Z,0.80
2022-09-11T17:35:27.097Z,0.80
2022-09-11T17:37:55.735Z,1.00
2022-09-11T17:40:23.919Z,1.00
2022-09-11T17:42:55.902Z,0.90
2022-09-11T17:45:25.393Z,0.82
2022-09-11T17:47:53.895Z,0.98
2022-09-11T17:50:21.827Z,0.93
2022-09-11T17:52:52.678Z,0.98
2022-09-11T17:55:23.013Z,1.10
2022-09-11T17:57:54.826Z,1.12
2022-09-11T18:00:23.752Z,1.05
2022-09-11T18:02:54.392Z,0.93
2022-09-11T18:05:23.146Z,1.12
2022-09-11T18:10:24.479Z,0.95
2022-09-11T18:12:58.617Z,0.82
2022-09-11T18:15:29.724Z,0.73
2022-09-11T18:17:57.960Z,1.12
2022-09-11T18:20:28.102Z,0.88
2022-09-11T18:22:56.639Z,1.12
2022-09-11T18:25:26.508Z,0.80
2022-09-11T18:27:56.188Z,1.00
2022-09-11T18:30:24.397Z,0.88
2022-09-11T18:32:54.365Z,0.90
2022-09-11T18:35:23.114Z,0.85
2022-09-11T18:37:54.572Z,1.20
2022-09-11T18:40:23.584Z,0.82
2022-09-11T18:42:53.046Z,0.90
2022-09-11T18:45:22.055Z,1.23
2022-09-11T18:47:54.913Z,0.80
2022-09-11T18:50:25.857Z,1.00
2022-09-11T18:52:57.091Z,0.90
2022-09-11T18:55:29.936Z,0.90
2022-09-11T18:58:04.477Z,0.90
2022-09-11T19:00:33.083Z,1.10
2022-09-11T19:03:02.881Z,1.00
2022-09-11T19:05:31.463Z,0.90
2022-09-11T19:08:01.610Z,0.93
2022-09-11T19:10:30.223Z,0.80
2022-09-11T19:13:01.334Z,0.90
2022-09-11T19:15:34.144Z,0.80
2022-09-11T19:18:03.145Z,0.90
2022-09-11T19:20:32.171Z,1.00
2022-09-11T19:23:02.760Z,0.90
2022-09-11T19:25:33.649Z,1.00
2022-09-11T19:28:02.664Z,0.93
2022-09-11T19:30:40.082Z,0.90
2022-09-11T19:33:13.414Z,1.00
2022-09-11T19:35:42.194Z,1.10
2022-09-11T19:38:10.169Z,1.00
2022-09-11T19:40:38.554Z,1.02
2022-09-11T19:43:07.448Z,0.82
2022-09-11T19:45:35.561Z,1.20
2022-09-11T19:48:04.540Z,1.20
2022-09-11T19:50:37.371Z,1.25
2022-09-11T19:53:06.276Z,1.20
2022-09-11T19:55:35.608Z,1.20
2022-09-11T19:58:04.510Z,1.20
2022-09-11T20:00:36.107Z,1.20
2022-09-11T20:03:06.413Z,1.35
2022-09-11T20:05:40.797Z,1.40
2022-09-11T20:08:14.022Z,1.40
2022-09-11T20:10:46.970Z,1.62
2022-09-11T20:13:18.992Z,1.23
2022-09-11T20:15:47.690Z,1.30
2022-09-11T20:18:20.602Z,1.30
2022-09-11T20:20:55.351Z,1.60
2022-09-11T20:23:27.469Z,1.17
2022-09-11T20:26:21.555Z,1.35
2022-09-11T20:29:03.274Z,1.20
2022-09-11T20:31:42.538Z,1.58
2022-09-11T20:34:23.327Z,1.30
2022-09-11T20:36:54.937Z,1.23
2022-09-11T20:39:28.520Z,1.60
2022-09-11T20:42:02.430Z,1.30
2022-09-11T20:47:13.959Z,1.35
2022-09-11T20:49:48.288Z,1.48
2022-09-11T20:52:20.230Z,1.48
2022-09-11T20:54:51.737Z,1.50
2022-09-11T20:57:22.678Z,1.50
2022-09-11T20:59:51.788Z,1.58
2022-09-11T21:02:20.818Z,1.70
2022-09-11T21:04:49.233Z,1.67
2022-09-11T21:07:17.608Z,1.60
2022-09-11T21:09:46.408Z,1.62
2022-09-11T21:12:14.472Z,1.40
2022-09-11T21:17:13.585Z,1.70
2022-09-11T21:19:43.078Z,1.60
2022-09-11T21:22:16.094Z,1.55
2022-09-11T21:24:45.884Z,1.55
2022-09-11T21:27:15.429Z,1.80
2022-09-11T21:29:43.185Z,1.70
2022-09-11T21:32:13.387Z,1.70
2022-09-11T21:34:43.257Z,2.37
2022-09-11T21:39:44.601Z,1.80
2022-09-11T21:42:15.149Z,1.90
2022-09-11T21:44:45.284Z,1.60
2022-09-11T21:47:14.093Z,1.80
2022-09-11T21:49:45.950Z,1.60
2022-09-11T21:52:16.548Z,1.95
2022-09-11T21:54:46.859Z,1.95
2022-09-11T21:57:18.092Z,1.83
2022-09-11T21:59:49.089Z,2.03
2022-09-11T22:02:24.372Z,2.12
2022-09-11T22:04:56.630Z,2.03
2022-09-11T22:07:32.453Z,1.80
2022-09-11T22:10:07.421Z,2.12
2022-09-11T22:12:48.627Z,1.92
2022-09-11T22:15:28.135Z,2.00
2022-09-11T22:18:11.852Z,2.15
2022-09-11T22:20:44.763Z,1.90
2022-09-11T22:23:23.264Z,2.00
2022-09-11T22:26:24.694Z,2.30
2022-09-11T22:28:59.729Z,2.10
2022-09-11T22:31:33.509Z,2.28
2022-09-11T22:34:16.595Z,2.22
2022-09-11T22:36:54.245Z,2.20
2022-09-11T22:39:27.420Z,1.87
2022-09-11T22:42:08.504Z,2.12
2022-09-11T22:47:23.504Z,2.15
2022-09-11T22:50:00.777Z,1.92
2022-09-11T22:52:40.258Z,2.03
2022-09-11T22:55:15.557Z,2.33
2022-09-11T22:57:57.675Z,2.22
2022-09-11T23:00:42.525Z,2.22
2022-09-11T23:03:20.676Z,2.40
2022-09-11T23:06:23.620Z,2.35
2022-09-11T23:09:01.172Z,2.30
2022-09-11T23:11:40.176Z,2.35
2022-09-11T23:14:29.343Z,2.50
2022-09-11T23:17:10.846Z,2.00
2022-09-11T23:19:49.671Z,2.30
2022-09-11T23:22:28.047Z,2.30
2022-09-11T23:28:09.311Z,2.30
2022-09-11T23:30:42.550Z,2.30
2022-09-11T23:33:17.701Z,2.20
2022-09-11T23:35:56.704Z,2.20
2022-09-11T23:38:30.065Z,2.55
2022-09-11T23:41:05.455Z,2.35
2022-09-11T23:43:42.770Z,2.12
2022-09-11T23:46:24.224Z,2.50
2022-09-11T23:49:08.761Z,2.15
2022-09-11T23:51:42.444Z,2.22
2022-09-11T23:54:19.150Z,2.40
2022-09-11T23:56:54.715Z,2.37
2022-09-11T23:59:27.941Z,2.30
